sensor_id;sensor_type;location;lat;lon;timestamp;P1;durP1;ratioP1;P2;durP2;ratioP2
15990;SDS011;8100;50.994;4.538;2023-11-18T00:02:34;11.13;;;5.55;;
15990;SDS011;8100;50.994;4.538;2023-11-18T00:05:21;8.82;;;5.70;;
15990;SDS011;8100;50.994;4.538;2023-11-18T00:08:10;8.45;;;5.30;;
15990;SDS011;8100;50.994;4.538;2023-11-18T00:10:58;9.32;;;4.80;;
15990;SDS011;8100;50.994;4.538;2023-11-18T00:13:45;8.73;;;4.60;;
15990;SDS011;8100;50.994;4.538;2023-11-18T00:16:33;7.30;;;4.85;;
15990;SDS011;8100;50.994;4.538;2023-11-18T00:19:20;8.77;;;5.18;;
15990;SDS011;8100;50.994;4.538;2023-11-18T00:22:07;8.10;;;5.05;;
15990;SDS011;8100;50.994;4.538;2023-11-18T00:24:56;8.07;;;4.70;;
15990;SDS011;8100;50.994;4.538;2023-11-18T00:27:43;10.02;;;4.68;;
15990;SDS011;8100;50.994;4.538;2023-11-18T00:30:30;7.57;;;4.55;;
15990;SDS011;8100;50.994;4.538;2023-11-18T00:33:17;8.77;;;4.72;;
15990;SDS011;8100;50.994;4.538;2023-11-18T00:36:05;8.90;;;4.78;;
15990;SDS011;8100;50.994;4.538;2023-11-18T00:38:53;8.68;;;4.40;;
15990;SDS011;8100;50.994;4.538;2023-11-18T00:41:41;9.75;;;4.55;;
15990;SDS011;8100;50.994;4.538;2023-11-18T00:44:29;8.30;;;4.75;;
15990;SDS011;8100;50.994;4.538;2023-11-18T00:47:16;9.45;;;4.82;;
15990;SDS011;8100;50.994;4.538;2023-11-18T00:50:04;7.07;;;4.80;;
15990;SDS011;8100;50.994;4.538;2023-11-18T00:52:53;11.88;;;5.38;;
15990;SDS011;8100;50.994;4.538;2023-11-18T00:55:40;9.93;;;5.32;;
15990;SDS011;8100;50.994;4.538;2023-11-18T00:58:29;8.30;;;5.10;;
15990;SDS011;8100;50.994;4.538;2023-11-18T01:01:16;10.15;;;5.22;;
15990;SDS011;8100;50.994;4.538;2023-11-18T01:04:04;7.95;;;5.22;;
15990;SDS011;8100;50.994;4.538;2023-11-18T01:06:51;9.60;;;5.57;;
15990;SDS011;8100;50.994;4.538;2023-11-18T01:09:38;11.02;;;5.60;;
15990;SDS011;8100;50.994;4.538;2023-11-18T01:12:25;8.13;;;5.63;;
15990;SDS011;8100;50.994;4.538;2023-11-18T01:15:14;10.93;;;6.38;;
15990;SDS011;8100;50.994;4.538;2023-11-18T01:18:01;9.73;;;5.80;;
15990;SDS011;8100;50.994;4.538;2023-11-18T01:20:49;7.68;;;5.30;;
15990;SDS011;8100;50.994;4.538;2023-11-18T01:23:36;10.65;;;5.75;;
15990;SDS011;8100;50.994;4.538;2023-11-18T01:26:24;9.45;;;5.38;;
15990;SDS011;8100;50.994;4.538;2023-11-18T01:29:12;10.60;;;5.75;;
15990;SDS011;8100;50.994;4.538;2023-11-18T01:32:01;10.95;;;5.90;;
15990;SDS011;8100;50.994;4.538;2023-11-18T01:34:54;10.27;;;5.38;;
15990;SDS011;8100;50.994;4.538;2023-11-18T01:37:41;11.50;;;5.53;;
15990;SDS011;8100;50.994;4.538;2023-11-18T01:40:29;8.95;;;5.20;;
15990;SDS011;8100;50.994;4.538;2023-11-18T01:43:17;11.15;;;5.70;;
15990;SDS011;8100;50.994;4.538;2023-11-18T01:46:05;8.45;;;5.53;;
15990;SDS011;8100;50.994;4.538;2023-11-18T01:48:57;10.77;;;5.72;;
15990;SDS011;8100;50.994;4.538;2023-11-18T01:51:45;8.38;;;4.85;;
15990;SDS011;8100;50.994;4.538;2023-11-18T01:54:33;10.98;;;4.85;;
15990;SDS011;8100;50.994;4.538;2023-11-18T01:57:23;9.32;;;4.95;;
15990;SDS011;8100;50.994;4.538;2023-11-18T02:00:12;6.80;;;4.63;;
15990;SDS011;8100;50.994;4.538;2023-11-18T02:03:02;10.07;;;5.30;;
15990;SDS011;8100;50.994;4.538;2023-11-18T02:05:52;8.63;;;4.90;;
15990;SDS011;8100;50.994;4.538;2023-11-18T02:08:39;8.55;;;4.93;;
15990;SDS011;8100;50.994;4.538;2023-11-18T02:11:28;9.13;;;5.20;;
15990;SDS011;8100;50.994;4.538;2023-11-18T02:14:18;10.02;;;4.97;;
15990;SDS011;8100;50.994;4.538;2023-11-18T02:17:08;9.32;;;4.72;;
15990;SDS011;8100;50.994;4.538;2023-11-18T02:19:57;9.13;;;4.63;;
15990;SDS011;8100;50.994;4.538;2023-11-18T02:22:47;6.10;;;4.45;;
15990;SDS011;8100;50.994;4.538;2023-11-18T02:28:30;13.57;;;4.80;;
15990;SDS011;8100;50.994;4.538;2023-11-18T02:31:20;9.38;;;4.70;;
15990;SDS011;8100;50.994;4.538;2023-11-18T02:34:12;7.97;;;4.57;;
15990;SDS011;8100;50.994;4.538;2023-11-18T02:37:06;8.45;;;4.78;;
15990;SDS011;8100;50.994;4.538;2023-11-18T02:39:57;7.10;;;4.50;;
15990;SDS011;8100;50.994;4.538;2023-11-18T02:42:54;8.43;;;4.68;;
15990;SDS011;8100;50.994;4.538;2023-11-18T02:45:44;9.77;;;5.05;;
15990;SDS011;8100;50.994;4.538;2023-11-18T02:48:33;11.25;;;4.95;;
15990;SDS011;8100;50.994;4.538;2023-11-18T02:51:21;7.07;;;4.40;;
15990;SDS011;8100;50.994;4.538;2023-11-18T02:54:08;10.18;;;4.90;;
15990;SDS011;8100;50.994;4.538;2023-11-18T02:56:56;8.77;;;4.93;;
15990;SDS011;8100;50.994;4.538;2023-11-18T02:59:45;7.80;;;4.47;;
15990;SDS011;8100;50.994;4.538;2023-11-18T03:02:33;10.07;;;4.90;;
15990;SDS011;8100;50.994;4.538;2023-11-18T03:05:20;7.45;;;5.32;;
15990;SDS011;8100;50.994;4.538;2023-11-18T03:08:08;10.38;;;5.20;;
15990;SDS011;8100;50.994;4.538;2023-11-18T03:10:55;9.25;;;5.07;;
15990;SDS011;8100;50.994;4.538;2023-11-18T03:13:43;7.57;;;4.55;;
15990;SDS011;8100;50.994;4.538;2023-11-18T03:16:32;8.75;;;4.72;;
15990;SDS011;8100;50.994;4.538;2023-11-18T03:19:20;9.85;;;4.70;;
15990;SDS011;8100;50.994;4.538;2023-11-18T03:22:07;7.85;;;4.22;;
15990;SDS011;8100;50.994;4.538;2023-11-18T03:24:54;8.55;;;4.32;;
15990;SDS011;8100;50.994;4.538;2023-11-18T03:27:41;8.43;;;4.18;;
15990;SDS011;8100;50.994;4.538;2023-11-18T03:30:29;7.68;;;3.90;;
15990;SDS011;8100;50.994;4.538;2023-11-18T03:33:18;7.70;;;4.05;;
15990;SDS011;8100;50.994;4.538;2023-11-18T03:36:05;9.57;;;4.85;;
15990;SDS011;8100;50.994;4.538;2023-11-18T03:38:54;5.30;;;3.83;;
15990;SDS011;8100;50.994;4.538;2023-11-18T03:41:41;7.63;;;3.80;;
15990;SDS011;8100;50.994;4.538;2023-11-18T03:44:29;10.70;;;4.13;;
15990;SDS011;8100;50.994;4.538;2023-11-18T03:47:17;8.07;;;4.68;;
15990;SDS011;8100;50.994;4.538;2023-11-18T03:50:06;8.38;;;4.47;;
15990;SDS011;8100;50.994;4.538;2023-11-18T03:52:54;7.38;;;4.13;;
15990;SDS011;8100;50.994;4.538;2023-11-18T03:55:41;9.40;;;4.68;;
15990;SDS011;8100;50.994;4.538;2023-11-18T03:58:29;7.03;;;4.43;;
15990;SDS011;8100;50.994;4.538;2023-11-18T04:01:21;6.25;;;4.03;;
15990;SDS011;8100;50.994;4.538;2023-11-18T04:04:08;7.25;;;4.03;;
15990;SDS011;8100;50.994;4.538;2023-11-18T04:06:57;6.95;;;4.10;;
15990;SDS011;8100;50.994;4.538;2023-11-18T04:09:46;8.70;;;4.25;;
15990;SDS011;8100;50.994;4.538;2023-11-18T04:12:33;9.77;;;3.95;;
15990;SDS011;8100;50.994;4.538;2023-11-18T04:15:20;7.68;;;4.15;;
15990;SDS011;8100;50.994;4.538;2023-11-18T04:18:07;6.28;;;3.75;;
15990;SDS011;8100;50.994;4.538;2023-11-18T04:20:55;6.60;;;3.67;;
15990;SDS011;8100;50.994;4.538;2023-11-18T04:23:44;5.90;;;3.63;;
15990;SDS011;8100;50.994;4.538;2023-11-18T04:26:32;6.65;;;3.53;;
15990;SDS011;8100;50.994;4.538;2023-11-18T04:29:19;7.43;;;3.22;;
15990;SDS011;8100;50.994;4.538;2023-11-18T04:32:08;6.72;;;3.50;;
15990;SDS011;8100;50.994;4.538;2023-11-18T04:34:56;5.25;;;3.08;;
15990;SDS011;8100;50.994;4.538;2023-11-18T04:37:43;6.47;;;3.35;;
15990;SDS011;8100;50.994;4.538;2023-11-18T04:40:32;7.90;;;3.05;;
15990;SDS011;8100;50.994;4.538;2023-11-18T04:43:20;8.77;;;3.63;;
15990;SDS011;8100;50.994;4.538;2023-11-18T04:46:07;5.38;;;2.90;;
15990;SDS011;8100;50.994;4.538;2023-11-18T04:48:56;5.20;;;3.15;;
15990;SDS011;8100;50.994;4.538;2023-11-18T04:51:43;7.72;;;2.83;;
15990;SDS011;8100;50.994;4.538;2023-11-18T04:54:30;7.35;;;2.67;;
15990;SDS011;8100;50.994;4.538;2023-11-18T04:57:19;5.32;;;2.50;;
15990;SDS011;8100;50.994;4.538;2023-11-18T05:00:06;9.05;;;2.92;;
15990;SDS011;8100;50.994;4.538;2023-11-18T05:02:57;7.22;;;2.50;;
15990;SDS011;8100;50.994;4.538;2023-11-18T05:05:44;6.53;;;2.72;;
15990;SDS011;8100;50.994;4.538;2023-11-18T05:08:31;7.88;;;2.50;;
15990;SDS011;8100;50.994;4.538;2023-11-18T05:11:19;5.25;;;2.58;;
15990;SDS011;8100;50.994;4.538;2023-11-18T05:14:07;6.05;;;2.40;;
15990;SDS011;8100;50.994;4.538;2023-11-18T05:16:55;3.17;;;2.08;;
15990;SDS011;8100;50.994;4.538;2023-11-18T05:19:42;5.50;;;2.17;;
15990;SDS011;8100;50.994;4.538;2023-11-18T05:22:29;4.00;;;2.38;;
15990;SDS011;8100;50.994;4.538;2023-11-18T05:25:17;4.65;;;2.05;;
15990;SDS011;8100;50.994;4.538;2023-11-18T05:28:04;4.22;;;1.92;;
15990;SDS011;8100;50.994;4.538;2023-11-18T05:30:55;7.43;;;2.85;;
15990;SDS011;8100;50.994;4.538;2023-11-18T05:33:43;7.13;;;2.65;;
15990;SDS011;8100;50.994;4.538;2023-11-18T05:36:37;5.97;;;2.72;;
15990;SDS011;8100;50.994;4.538;2023-11-18T05:39:25;8.43;;;2.47;;
15990;SDS011;8100;50.994;4.538;2023-11-18T05:42:16;7.80;;;2.75;;
15990;SDS011;8100;50.994;4.538;2023-11-18T05:45:03;5.70;;;2.63;;
15990;SDS011;8100;50.994;4.538;2023-11-18T05:47:54;8.93;;;2.90;;
15990;SDS011;8100;50.994;4.538;2023-11-18T05:50:42;8.25;;;3.10;;
15990;SDS011;8100;50.994;4.538;2023-11-18T05:53:29;9.45;;;3.03;;
15990;SDS011;8100;50.994;4.538;2023-11-18T05:56:16;7.60;;;3.00;;
15990;SDS011;8100;50.994;4.538;2023-11-18T05:59:03;5.00;;;2.38;;
15990;SDS011;8100;50.994;4.538;2023-11-18T06:01:51;7.65;;;2.53;;
15990;SDS011;8100;50.994;4.538;2023-11-18T06:04:39;6.20;;;2.15;;
15990;SDS011;8100;50.994;4.538;2023-11-18T06:07:27;4.63;;;1.92;;
15990;SDS011;8100;50.994;4.538;2023-11-18T06:10:15;7.57;;;2.53;;
15990;SDS011;8100;50.994;4.538;2023-11-18T06:13:02;5.15;;;2.08;;
15990;SDS011;8100;50.994;4.538;2023-11-18T06:15:50;3.50;;;1.60;;
15990;SDS011;8100;50.994;4.538;2023-11-18T06:18:38;2.97;;;1.48;;
15990;SDS011;8100;50.994;4.538;2023-11-18T06:21:26;5.10;;;1.80;;
15990;SDS011;8100;50.994;4.538;2023-11-18T06:24:15;3.47;;;1.67;;
15990;SDS011;8100;50.994;4.538;2023-11-18T06:27:04;5.32;;;1.60;;
15990;SDS011;8100;50.994;4.538;2023-11-18T06:29:52;4.20;;;1.73;;
15990;SDS011;8100;50.994;4.538;2023-11-18T06:32:40;6.70;;;1.45;;
15990;SDS011;8100;50.994;4.538;2023-11-18T06:35:27;6.43;;;1.60;;
15990;SDS011;8100;50.994;4.538;2023-11-18T06:38:16;4.80;;;1.20;;
15990;SDS011;8100;50.994;4.538;2023-11-18T06:41:04;3.28;;;1.20;;
15990;SDS011;8100;50.994;4.538;2023-11-18T06:43:54;4.05;;;1.60;;
15990;SDS011;8100;50.994;4.538;2023-11-18T06:46:46;3.42;;;1.05;;
15990;SDS011;8100;50.994;4.538;2023-11-18T06:49:33;2.22;;;1.15;;
15990;SDS011;8100;50.994;4.538;2023-11-18T06:52:20;1.85;;;1.00;;
15990;SDS011;8100;50.994;4.538;2023-11-18T06:55:09;2.65;;;0.98;;
15990;SDS011;8100;50.994;4.538;2023-11-18T06:57:56;4.10;;;0.80;;
15990;SDS011;8100;50.994;4.538;2023-11-18T07:00:44;3.15;;;1.27;;
15990;SDS011;8100;50.994;4.538;2023-11-18T07:03:31;3.10;;;1.10;;
15990;SDS011;8100;50.994;4.538;2023-11-18T07:06:18;2.25;;;0.98;;
15990;SDS011;8100;50.994;4.538;2023-11-18T07:09:08;2.17;;;1.10;;
15990;SDS011;8100;50.994;4.538;2023-11-18T07:12:00;3.00;;;1.00;;
15990;SDS011;8100;50.994;4.538;2023-11-18T07:14:47;8.70;;;1.00;;
15990;SDS011;8100;50.994;4.538;2023-11-18T07:17:34;3.10;;;0.90;;
15990;SDS011;8100;50.994;4.538;2023-11-18T07:20:21;4.53;;;1.15;;
15990;SDS011;8100;50.994;4.538;2023-11-18T07:23:08;2.78;;;0.82;;
15990;SDS011;8100;50.994;4.538;2023-11-18T07:25:56;2.92;;;1.00;;
15990;SDS011;8100;50.994;4.538;2023-11-18T07:28:44;3.28;;;1.00;;
15990;SDS011;8100;50.994;4.538;2023-11-18T07:31:32;1.77;;;1.05;;
15990;SDS011;8100;50.994;4.538;2023-11-18T07:34:20;5.50;;;0.82;;
15990;SDS011;8100;50.994;4.538;2023-11-18T07:37:09;4.95;;;1.33;;
15990;SDS011;8100;50.994;4.538;2023-11-18T07:39:58;3.75;;;1.20;;
15990;SDS011;8100;50.994;4.538;2023-11-18T07:42:46;3.28;;;1.13;;
15990;SDS011;8100;50.994;4.538;2023-11-18T07:45:35;3.63;;;1.00;;
15990;SDS011;8100;50.994;4.538;2023-11-18T07:48:23;5.63;;;1.33;;
15990;SDS011;8100;50.994;4.538;2023-11-18T07:51:11;5.72;;;1.08;;
15990;SDS011;8100;50.994;4.538;2023-11-18T07:54:00;2.30;;;1.00;;
15990;SDS011;8100;50.994;4.538;2023-11-18T07:56:49;2.97;;;1.30;;
15990;SDS011;8100;50.994;4.538;2023-11-18T07:59:36;3.75;;;1.10;;
15990;SDS011;8100;50.994;4.538;2023-11-18T08:02:24;3.28;;;1.08;;
15990;SDS011;8100;50.994;4.538;2023-11-18T08:05:13;2.42;;;1.02;;
15990;SDS011;8100;50.994;4.538;2023-11-18T08:08:00;1.42;;;1.00;;
15990;SDS011;8100;50.994;4.538;2023-11-18T08:10:49;3.58;;;0.90;;
15990;SDS011;8100;50.994;4.538;2023-11-18T08:13:36;4.47;;;1.10;;
15990;SDS011;8100;50.994;4.538;2023-11-18T08:16:23;2.45;;;1.00;;
15990;SDS011;8100;50.994;4.538;2023-11-18T08:19:13;1.67;;;0.93;;
15990;SDS011;8100;50.994;4.538;2023-11-18T08:22:00;2.47;;;1.13;;
15990;SDS011;8100;50.994;4.538;2023-11-18T08:24:47;2.35;;;1.08;;
15990;SDS011;8100;50.994;4.538;2023-11-18T08:27:35;1.73;;;0.88;;
15990;SDS011;8100;50.994;4.538;2023-11-18T08:30:22;1.42;;;0.93;;
15990;SDS011;8100;50.994;4.538;2023-11-18T08:33:09;1.75;;;1.02;;
15990;SDS011;8100;50.994;4.538;2023-11-18T08:35:58;1.23;;;0.82;;
15990;SDS011;8100;50.994;4.538;2023-11-18T08:38:47;1.88;;;1.05;;
15990;SDS011;8100;50.994;4.538;2023-11-18T08:41:34;1.90;;;0.95;;
15990;SDS011;8100;50.994;4.538;2023-11-18T08:44:22;2.30;;;1.00;;
15990;SDS011;8100;50.994;4.538;2023-11-18T08:47:09;2.08;;;1.02;;
15990;SDS011;8100;50.994;4.538;2023-11-18T08:49:58;3.42;;;1.30;;
15990;SDS011;8100;50.994;4.538;2023-11-18T08:52:58;1.83;;;0.93;;
15990;SDS011;8100;50.994;4.538;2023-11-18T08:55:49;3.58;;;2.85;;
15990;SDS011;8100;50.994;4.538;2023-11-18T08:58:40;3.92;;;1.95;;
15990;SDS011;8100;50.994;4.538;2023-11-18T09:01:30;4.07;;;2.42;;
15990;SDS011;8100;50.994;4.538;2023-11-18T09:04:17;13.30;;;5.80;;
15990;SDS011;8100;50.994;4.538;2023-11-18T09:07:06;4.97;;;1.55;;
15990;SDS011;8100;50.994;4.538;2023-11-18T09:09:56;2.95;;;1.30;;
15990;SDS011;8100;50.994;4.538;2023-11-18T09:12:43;3.03;;;1.52;;
15990;SDS011;8100;50.994;4.538;2023-11-18T09:15:34;4.10;;;1.88;;
15990;SDS011;8100;50.994;4.538;2023-11-18T09:18:22;3.45;;;1.70;;
15990;SDS011;8100;50.994;4.538;2023-11-18T09:21:10;2.60;;;1.40;;
15990;SDS011;8100;50.994;4.538;2023-11-18T09:23:59;3.72;;;1.48;;
15990;SDS011;8100;50.994;4.538;2023-11-18T09:26:51;4.57;;;1.27;;
15990;SDS011;8100;50.994;4.538;2023-11-18T09:29:40;2.53;;;1.08;;
15990;SDS011;8100;50.994;4.538;2023-11-18T09:32:28;1.80;;;1.38;;
15990;SDS011;8100;50.994;4.538;2023-11-18T09:35:19;1.60;;;1.27;;
15990;SDS011;8100;50.994;4.538;2023-11-18T09:38:06;3.35;;;2.05;;
15990;SDS011;8100;50.994;4.538;2023-11-18T09:40:54;1.48;;;1.10;;
15990;SDS011;8100;50.994;4.538;2023-11-18T09:43:44;3.22;;;1.85;;
15990;SDS011;8100;50.994;4.538;2023-11-18T09:46:31;2.83;;;1.15;;
15990;SDS011;8100;50.994;4.538;2023-11-18T09:49:26;3.95;;;1.15;;
15990;SDS011;8100;50.994;4.538;2023-11-18T09:52:19;1.85;;;1.13;;
15990;SDS011;8100;50.994;4.538;2023-11-18T09:55:11;2.50;;;1.13;;
15990;SDS011;8100;50.994;4.538;2023-11-18T09:58:05;2.78;;;1.23;;
15990;SDS011;8100;50.994;4.538;2023-11-18T10:01:00;4.25;;;2.20;;
15990;SDS011;8100;50.994;4.538;2023-11-18T10:03:49;5.05;;;2.70;;
15990;SDS011;8100;50.994;4.538;2023-11-18T10:06:37;2.65;;;1.60;;
15990;SDS011;8100;50.994;4.538;2023-11-18T10:09:25;3.45;;;1.40;;
15990;SDS011;8100;50.994;4.538;2023-11-18T10:12:14;2.20;;;1.35;;
15990;SDS011;8100;50.994;4.538;2023-11-18T10:15:09;2.60;;;1.42;;
15990;SDS011;8100;50.994;4.538;2023-11-18T10:18:02;5.43;;;2.05;;
15990;SDS011;8100;50.994;4.538;2023-11-18T10:20:53;1.77;;;1.20;;
15990;SDS011;8100;50.994;4.538;2023-11-18T10:23:42;2.45;;;1.63;;
15990;SDS011;8100;50.994;4.538;2023-11-18T10:26:45;2.03;;;1.30;;
15990;SDS011;8100;50.994;4.538;2023-11-18T10:29:41;2.05;;;1.17;;
15990;SDS011;8100;50.994;4.538;2023-11-18T10:32:28;1.90;;;1.30;;
15990;SDS011;8100;50.994;4.538;2023-11-18T10:35:21;1.50;;;1.10;;
15990;SDS011;8100;50.994;4.538;2023-11-18T10:38:09;3.17;;;1.33;;
15990;SDS011;8100;50.994;4.538;2023-11-18T10:40:57;1.52;;;1.08;;
15990;SDS011;8100;50.994;4.538;2023-11-18T10:43:46;3.03;;;1.50;;
15990;SDS011;8100;50.994;4.538;2023-11-18T10:46:33;5.65;;;1.42;;
15990;SDS011;8100;50.994;4.538;2023-11-18T10:49:21;2.63;;;1.50;;
15990;SDS011;8100;50.994;4.538;2023-11-18T10:52:10;3.80;;;1.13;;
15990;SDS011;8100;50.994;4.538;2023-11-18T10:54:58;2.03;;;1.33;;
15990;SDS011;8100;50.994;4.538;2023-11-18T10:57:52;4.68;;;1.98;;
15990;SDS011;8100;50.994;4.538;2023-11-18T11:00:46;1.77;;;1.20;;
15990;SDS011;8100;50.994;4.538;2023-11-18T11:03:34;1.60;;;1.23;;
15990;SDS011;8100;50.994;4.538;2023-11-18T11:06:22;3.28;;;1.38;;
15990;SDS011;8100;50.994;4.538;2023-11-18T11:09:11;3.20;;;1.30;;
15990;SDS011;8100;50.994;4.538;2023-11-18T11:12:03;3.20;;;1.35;;
15990;SDS011;8100;50.994;4.538;2023-11-18T11:15:01;1.92;;;1.23;;
15990;SDS011;8100;50.994;4.538;2023-11-18T11:18:02;2.80;;;1.40;;
15990;SDS011;8100;50.994;4.538;2023-11-18T11:20:57;2.15;;;1.17;;
15990;SDS011;8100;50.994;4.538;2023-11-18T11:23:53;1.63;;;0.95;;
15990;SDS011;8100;50.994;4.538;2023-11-18T11:26:45;2.53;;;1.10;;
15990;SDS011;8100;50.994;4.538;2023-11-18T11:29:45;2.72;;;1.13;;
15990;SDS011;8100;50.994;4.538;2023-11-18T11:32:45;2.80;;;1.15;;
15990;SDS011;8100;50.994;4.538;2023-11-18T11:35:37;1.52;;;0.93;;
15990;SDS011;8100;50.994;4.538;2023-11-18T11:38:30;1.45;;;0.90;;
15990;SDS011;8100;50.994;4.538;2023-11-18T11:41:20;3.28;;;1.77;;
15990;SDS011;8100;50.994;4.538;2023-11-18T11:44:13;3.95;;;0.95;;
15990;SDS011;8100;50.994;4.538;2023-11-18T11:47:00;1.88;;;0.88;;
15990;SDS011;8100;50.994;4.538;2023-11-18T11:49:50;2.38;;;1.33;;
15990;SDS011;8100;50.994;4.538;2023-11-18T11:52:44;2.00;;;0.95;;
15990;SDS011;8100;50.994;4.538;2023-11-18T11:55:37;1.58;;;0.80;;
15990;SDS011;8100;50.994;4.538;2023-11-18T11:58:30;1.55;;;0.80;;
15990;SDS011;8100;50.994;4.538;2023-11-18T12:01:24;2.97;;;1.05;;
15990;SDS011;8100;50.994;4.538;2023-11-18T12:04:17;2.17;;;0.52;;
15990;SDS011;8100;50.994;4.538;2023-11-18T12:07:13;1.05;;;0.60;;
15990;SDS011;8100;50.994;4.538;2023-11-18T12:10:01;3.28;;;1.45;;
15990;SDS011;8100;50.994;4.538;2023-11-18T12:12:54;1.85;;;0.75;;
15990;SDS011;8100;50.994;4.538;2023-11-18T12:15:54;1.92;;;0.98;;
15990;SDS011;8100;50.994;4.538;2023-11-18T12:18:44;1.00;;;0.50;;
15990;SDS011;8100;50.994;4.538;2023-11-18T12:22:12;1.20;;;0.40;;
15990;SDS011;8100;50.994;4.538;2023-11-18T12:28:24;3.95;;;1.80;;
15990;SDS011;8100;50.994;4.538;2023-11-18T12:31:13;1.92;;;0.88;;
15990;SDS011;8100;50.994;4.538;2023-11-18T12:34:48;1.52;;;0.77;;
15990;SDS011;8100;50.994;4.538;2023-11-18T12:41:18;1.30;;;0.80;;
15990;SDS011;8100;50.994;4.538;2023-11-18T12:44:25;1.45;;;0.40;;
15990;SDS011;8100;50.994;4.538;2023-11-18T12:47:17;0.60;;;0.50;;
15990;SDS011;8100;50.994;4.538;2023-11-18T12:50:13;0.73;;;0.40;;
15990;SDS011;8100;50.994;4.538;2023-11-18T12:53:10;0.65;;;0.40;;
15990;SDS011;8100;50.994;4.538;2023-11-18T12:56:01;0.75;;;0.40;;
15990;SDS011;8100;50.994;4.538;2023-11-18T12:58:49;0.63;;;0.43;;
15990;SDS011;8100;50.994;4.538;2023-11-18T13:01:37;1.60;;;0.57;;
15990;SDS011;8100;50.994;4.538;2023-11-18T13:04:27;0.73;;;0.50;;
15990;SDS011;8100;50.994;4.538;2023-11-18T13:07:15;2.00;;;0.98;;
15990;SDS011;8100;50.994;4.538;2023-11-18T13:10:04;1.45;;;0.70;;
15990;SDS011;8100;50.994;4.538;2023-11-18T13:12:54;0.60;;;0.50;;
15990;SDS011;8100;50.994;4.538;2023-11-18T13:15:43;0.98;;;0.50;;
15990;SDS011;8100;50.994;4.538;2023-11-18T13:18:40;0.70;;;0.50;;
15990;SDS011;8100;50.994;4.538;2023-11-18T13:21:29;1.55;;;0.60;;
15990;SDS011;8100;50.994;4.538;2023-11-18T13:24:17;0.40;;;0.40;;
15990;SDS011;8100;50.994;4.538;2023-11-18T13:27:05;0.65;;;0.30;;
15990;SDS011;8100;50.994;4.538;2023-11-18T13:29:55;0.40;;;0.30;;
15990;SDS011;8100;50.994;4.538;2023-11-18T13:32:43;0.50;;;0.30;;
15990;SDS011;8100;50.994;4.538;2023-11-18T13:35:30;0.28;;;0.20;;
15990;SDS011;8100;50.994;4.538;2023-11-18T13:38:17;0.75;;;0.30;;
15990;SDS011;8100;50.994;4.538;2023-11-18T13:41:05;1.40;;;0.38;;
15990;SDS011;8100;50.994;4.538;2023-11-18T13:43:54;0.40;;;0.30;;
15990;SDS011;8100;50.994;4.538;2023-11-18T13:46:45;0.90;;;0.32;;
15990;SDS011;8100;50.994;4.538;2023-11-18T13:49:32;0.60;;;0.40;;
15990;SDS011;8100;50.994;4.538;2023-11-18T13:52:20;1.45;;;0.80;;
15990;SDS011;8100;50.994;4.538;2023-11-18T13:55:08;0.20;;;0.20;;
15990;SDS011;8100;50.994;4.538;2023-11-18T13:58:02;0.25;;;0.17;;
15990;SDS011;8100;50.994;4.538;2023-11-18T14:00:50;0.38;;;0.30;;
15990;SDS011;8100;50.994;4.538;2023-11-18T14:03:39;0.20;;;0.20;;
15990;SDS011;8100;50.994;4.538;2023-11-18T14:06:29;0.65;;;0.40;;
15990;SDS011;8100;50.994;4.538;2023-11-18T14:09:17;0.45;;;0.30;;
15990;SDS011;8100;50.994;4.538;2023-11-18T14:12:06;0.22;;;0.20;;
15990;SDS011;8100;50.994;4.538;2023-11-18T14:14:54;0.60;;;0.30;;
15990;SDS011;8100;50.994;4.538;2023-11-18T14:17:42;0.30;;;0.20;;
15990;SDS011;8100;50.994;4.538;2023-11-18T14:20:30;0.15;;;0.10;;
15990;SDS011;8100;50.994;4.538;2023-11-18T14:23:17;0.47;;;0.20;;
15990;SDS011;8100;50.994;4.538;2023-11-18T14:26:06;0.40;;;0.20;;
15990;SDS011;8100;50.994;4.538;2023-11-18T14:28:54;1.15;;;0.50;;
15990;SDS011;8100;50.994;4.538;2023-11-18T14:31:41;0.75;;;0.40;;
15990;SDS011;8100;50.994;4.538;2023-11-18T14:34:28;0.25;;;0.25;;
15990;SDS011;8100;50.994;4.538;2023-11-18T14:37:17;1.15;;;0.35;;
15990;SDS011;8100;50.994;4.538;2023-11-18T14:40:05;0.73;;;0.25;;
15990;SDS011;8100;50.994;4.538;2023-11-18T14:42:54;0.22;;;0.22;;
15990;SDS011;8100;50.994;4.538;2023-11-18T14:45:42;0.20;;;0.20;;
15990;SDS011;8100;50.994;4.538;2023-11-18T14:48:29;0.20;;;0.20;;
15990;SDS011;8100;50.994;4.538;2023-11-18T14:51:16;0.57;;;0.30;;
15990;SDS011;8100;50.994;4.538;2023-11-18T14:54:05;0.20;;;0.20;;
15990;SDS011;8100;50.994;4.538;2023-11-18T14:56:52;1.67;;;1.00;;
15990;SDS011;8100;50.994;4.538;2023-11-18T14:59:39;0.63;;;0.52;;
15990;SDS011;8100;50.994;4.538;2023-11-18T15:02:27;0.85;;;0.40;;
15990;SDS011;8100;50.994;4.538;2023-11-18T15:05:14;1.05;;;0.82;;
15990;SDS011;8100;50.994;4.538;2023-11-18T15:08:03;0.85;;;0.38;;
15990;SDS011;8100;50.994;4.538;2023-11-18T15:10:56;0.30;;;0.30;;
15990;SDS011;8100;50.994;4.538;2023-11-18T15:13:44;1.30;;;0.50;;
15990;SDS011;8100;50.994;4.538;2023-11-18T15:16:31;0.73;;;0.47;;
15990;SDS011;8100;50.994;4.538;2023-11-18T15:19:18;0.85;;;0.40;;
15990;SDS011;8100;50.994;4.538;2023-11-18T15:22:05;0.30;;;0.20;;
15990;SDS011;8100;50.994;4.538;2023-11-18T15:24:52;0.63;;;0.30;;
15990;SDS011;8100;50.994;4.538;2023-11-18T15:27:46;0.60;;;0.50;;
15990;SDS011;8100;50.994;4.538;2023-11-18T15:30:34;1.20;;;0.32;;
15990;SDS011;8100;50.994;4.538;2023-11-18T15:33:22;0.25;;;0.25;;
15990;SDS011;8100;50.994;4.538;2023-11-18T15:36:10;0.32;;;0.28;;
15990;SDS011;8100;50.994;4.538;2023-11-18T15:38:58;0.55;;;0.40;;
15990;SDS011;8100;50.994;4.538;2023-11-18T15:41:48;0.40;;;0.30;;
15990;SDS011;8100;50.994;4.538;2023-11-18T15:44:37;1.77;;;0.50;;
15990;SDS011;8100;50.994;4.538;2023-11-18T15:47:24;2.35;;;0.70;;
15990;SDS011;8100;50.994;4.538;2023-11-18T15:50:12;0.52;;;0.40;;
15990;SDS011;8100;50.994;4.538;2023-11-18T15:53:01;0.40;;;0.40;;
15990;SDS011;8100;50.994;4.538;2023-11-18T15:55:48;0.40;;;0.40;;
15990;SDS011;8100;50.994;4.538;2023-11-18T15:58:37;1.13;;;0.35;;
15990;SDS011;8100;50.994;4.538;2023-11-18T16:01:25;0.73;;;0.32;;
15990;SDS011;8100;50.994;4.538;2023-11-18T16:04:13;0.75;;;0.43;;
15990;SDS011;8100;50.994;4.538;2023-11-18T16:07:00;0.50;;;0.30;;
15990;SDS011;8100;50.994;4.538;2023-11-18T16:09:47;0.57;;;0.40;;
15990;SDS011;8100;50.994;4.538;2023-11-18T16:12:34;0.35;;;0.35;;
15990;SDS011;8100;50.994;4.538;2023-11-18T16:15:22;0.43;;;0.40;;
15990;SDS011;8100;50.994;4.538;2023-11-18T16:18:12;2.15;;;0.40;;
15990;SDS011;8100;50.994;4.538;2023-11-18T16:20:59;0.93;;;0.40;;
15990;SDS011;8100;50.994;4.538;2023-11-18T16:23:48;0.52;;;0.40;;
15990;SDS011;8100;50.994;4.538;2023-11-18T16:26:36;2.97;;;0.50;;
15990;SDS011;8100;50.994;4.538;2023-11-18T16:29:25;0.98;;;0.50;;
15990;SDS011;8100;50.994;4.538;2023-11-18T16:32:12;0.60;;;0.43;;
15990;SDS011;8100;50.994;4.538;2023-11-18T16:35:01;0.40;;;0.40;;
15990;SDS011;8100;50.994;4.538;2023-11-18T16:37:49;2.00;;;0.70;;
15990;SDS011;8100;50.994;4.538;2023-11-18T16:40:37;1.52;;;0.77;;
15990;SDS011;8100;50.994;4.538;2023-11-18T16:43:24;1.50;;;0.77;;
15990;SDS011;8100;50.994;4.538;2023-11-18T16:46:11;1.00;;;0.70;;
15990;SDS011;8100;50.994;4.538;2023-11-18T16:48:59;1.25;;;0.70;;
15990;SDS011;8100;50.994;4.538;2023-11-18T16:51:47;1.15;;;0.68;;
15990;SDS011;8100;50.994;4.538;2023-11-18T16:54:34;2.08;;;0.95;;
15990;SDS011;8100;50.994;4.538;2023-11-18T16:57:21;1.73;;;0.80;;
15990;SDS011;8100;50.994;4.538;2023-11-18T17:00:10;1.55;;;0.80;;
15990;SDS011;8100;50.994;4.538;2023-11-18T17:03:01;1.77;;;0.77;;
15990;SDS011;8100;50.994;4.538;2023-11-18T17:05:49;1.40;;;0.95;;
15990;SDS011;8100;50.994;4.538;2023-11-18T17:08:38;3.75;;;1.33;;
15990;SDS011;8100;50.994;4.538;2023-11-18T17:11:25;1.23;;;1.00;;
15990;SDS011;8100;50.994;4.538;2023-11-18T17:14:12;5.30;;;1.27;;
15990;SDS011;8100;50.994;4.538;2023-11-18T17:17:00;1.33;;;0.98;;
15990;SDS011;8100;50.994;4.538;2023-11-18T17:19:48;1.58;;;1.00;;
15990;SDS011;8100;50.994;4.538;2023-11-18T17:22:36;0.98;;;0.88;;
15990;SDS011;8100;50.994;4.538;2023-11-18T17:25:26;1.70;;;1.00;;